Time;durP1;ratioP1;P1;durP2;ratioP2;P2;SDS_P1;SDS_P2;PMS_P1;PMS_P2;Temp;Humidity;BMP_temperature;BMP_pressure;BME280_temperature;BME280_humidity;BME280_pressure;Samples;Min_cycle;Max_cycle;Signal;HPM_P1;HPM_P2
2023/04/18 00:00:56;;;;;;;1.55;1.45;;;;;;;7.13;100.00;97644.97;1712019;75;673300;-73
2023/04/18 00:03:28;;;;;;;1.65;1.40;;;;;;;7.08;100.00;97640.13;1703363;75;739151;-76
2023/04/18 00:05:58;;;;;;;1.40;1.30;;;;;;;7.16;100.00;97643.31;1711749;75;673198;-74
2023/04/18 00:08:29;;;;;;;1.90;1.50;;;;;;;7.13;100.00;97652.38;1703288;75;759241;-72
2023/04/18 00:11:02;;;;;;;1.90;1.70;;;;;;;7.06;100.00;97649.97;1711634;75;700266;-71
2023/04/18 00:13:34;;;;;;;1.75;1.60;;;;;;;7.12;100.00;97659.03;1703277;75;744601;-73
2023/04/18 00:16:04;;;;;;;2.25;1.95;;;;;;;7.12;100.00;97651.63;1711594;75;674727;-72
2023/04/18 00:18:35;;;;;;;2.00;1.80;;;;;;;7.13;100.00;97649.66;1703252;75;755182;-72
2023/04/18 00:21:07;;;;;;;2.50;1.80;;;;;;;7.22;100.00;97652.41;1712203;75;676948;-72
2023/04/18 00:23:38;;;;;;;3.20;1.90;;;;;;;7.23;100.00;97643.75;1688174;75;1923923;-73
2023/04/18 00:26:11;;;;;;;2.35;1.55;;;;;;;7.28;100.00;97645.13;1688266;75;2700501;-72
2023/04/18 00:28:41;;;;;;;1.40;1.30;;;;;;;7.29;100.00;97638.50;1700089;75;972860;-72
2023/04/18 00:31:11;;;;;;;1.50;1.40;;;;;;;7.32;100.00;97634.09;1711971;75;715889;-72
2023/04/18 00:33:42;;;;;;;1.70;1.60;;;;;;;7.30;100.00;97636.53;1703257;75;739619;-74
2023/04/18 00:36:12;;;;;;;2.15;1.60;;;;;;;7.29;100.00;97633.03;1673501;75;3963768;-72
2023/04/18 00:38:42;;;;;;;1.50;1.40;;;;;;;7.29;100.00;97641.22;1703618;75;741035;-74
2023/04/18 00:41:15;;;;;;;1.20;1.10;;;;;;;7.27;100.00;97634.72;1711654;75;816856;-72
2023/04/18 00:43:46;;;;;;;1.30;1.20;;;;;;;7.22;100.00;97636.81;1703565;75;761898;-73
2023/04/18 00:46:17;;;;;;;1.70;1.40;;;;;;;7.19;100.00;97634.22;1712633;75;687635;-71
2023/04/18 00:48:47;;;;;;;1.30;1.20;;;;;;;7.20;100.00;97630.31;1702602;75;767917;-72
2023/04/18 00:51:17;;;;;;;3.05;1.10;;;;;;;7.16;100.00;97633.16;1712588;75;675447;-75
2023/04/18 00:53:48;;;;;;;1.70;1.60;;;;;;;7.13;100.00;97625.16;1699172;75;983817;-72
2023/04/18 00:56:22;;;;;;;1.30;1.20;;;;;;;7.05;100.00;97627.44;1712214;75;678320;-72
2023/04/18 00:58:53;;;;;;;1.60;1.40;;;;;;;7.01;100.00;97626.81;1703208;75;762057;-72
2023/04/18 01:01:23;;;;;;;1.30;1.20;;;;;;;7.02;100.00;97631.03;1696459;75;1988048;-74
2023/04/18 01:03:53;;;;;;;1.55;1.45;;;;;;;7.00;100.00;97634.25;1702989;75;780936;-74
2023/04/18 01:06:24;;;;;;;1.40;1.30;;;;;;;6.94;100.00;97622.41;1697293;75;1924967;-74
2023/04/18 01:08:54;;;;;;;1.40;1.30;;;;;;;6.90;100.00;97624.53;1702834;75;748853;-73
2023/04/18 01:11:27;;;;;;;1.20;1.10;;;;;;;6.87;100.00;97632.84;1711318;75;717253;-74
2023/04/18 01:14:06;;;;;;;1.30;1.20;;;;;;;6.85;100.00;97625.13;1677322;75;2842935;-75
2023/04/18 01:16:37;;;;;;;1.30;1.20;;;;;;;6.79;100.00;97619.53;1703924;75;672342;-72
2023/04/18 01:19:08;;;;;;;1.20;1.10;;;;;;;6.74;100.00;97620.13;1712398;75;675195;-74
2023/04/18 01:21:42;;;;;;;1.45;1.35;;;;;;;6.70;100.00;97629.63;1703719;75;697036;-72
2023/04/18 01:24:17;;;;;;;1.40;1.30;;;;;;;6.63;100.00;97617.06;1711611;75;683219;-74
2023/04/18 01:26:49;;;;;;;1.30;1.20;;;;;;;6.62;100.00;97618.28;1664461;67;3988270;-73
2023/04/18 01:29:19;;;;;;;1.20;1.10;;;;;;;6.58;100.00;97612.97;1711482;75;675246;-74
2023/04/18 01:31:49;;;;;;;1.35;1.25;;;;;;;6.56;100.00;97612.66;1655878;67;4699909;-72
2023/04/18 01:34:20;;;;;;;1.30;1.20;;;;;;;6.51;100.00;97615.22;1711752;75;672972;-74
2023/04/18 01:36:51;;;;;;;1.60;1.50;;;;;;;6.50;100.00;97617.19;1703737;75;682515;-73
2023/04/18 01:39:24;;;;;;;1.60;1.30;;;;;;;6.51;100.00;97615.22;1711866;75;682368;-73
2023/04/18 01:41:56;;;;;;;1.25;1.15;;;;;;;6.47;100.00;97607.22;1703984;75;684826;-72
2023/04/18 01:44:26;;;;;;;1.50;1.30;;;;;;;6.42;100.00;97617.91;1712257;75;676826;-72
2023/04/18 01:46:56;;;;;;;1.30;1.20;;;;;;;6.45;100.00;97615.06;1702222;75;835971;-73
2023/04/18 01:49:27;;;;;;;1.60;1.50;;;;;;;6.47;100.00;97620.81;1712169;75;669520;-72
2023/04/18 01:51:57;;;;;;;1.50;1.40;;;;;;;6.50;100.00;97619.91;1703962;75;679545;-72
2023/04/18 01:54:30;;;;;;;1.50;1.40;;;;;;;6.47;100.00;97620.03;1710271;75;821369;-72
2023/04/18 01:57:02;;;;;;;1.30;1.20;;;;;;;6.50;100.00;97611.75;1703151;75;743159;-73
2023/04/18 01:59:32;;;;;;;2.35;1.90;;;;;;;6.57;100.00;97610.72;1711666;75;677529;-73
2023/04/18 02:02:02;;;;;;;1.10;1.00;;;;;;;6.60;100.00;97620.69;1701799;75;756885;-72
2023/04/18 02:04:32;;;;;;;1.40;1.30;;;;;;;6.63;100.00;97621.75;1710654;75;799670;-72
2023/04/18 02:07:03;;;;;;;1.30;1.20;;;;;;;6.65;100.00;97622.81;1702310;75;760902;-74
2023/04/18 02:09:36;;;;;;;1.50;1.40;;;;;;;6.67;100.00;97616.94;1712258;75;675972;-74
2023/04/18 02:12:06;;;;;;;1.10;1.00;;;;;;;6.71;100.00;97615.59;1699917;75;936839;-71
2023/04/18 02:14:38;;;;;;;1.30;1.20;;;;;;;6.78;100.00;97614.53;1712328;75;670071;-71
2023/04/18 02:17:08;;;;;;;1.50;1.30;;;;;;;6.76;100.00;97616.97;1702814;75;752264;-70
2023/04/18 02:19:39;;;;;;;1.50;1.40;;;;;;;6.82;100.00;97615.16;1711969;75;677546;-72
2023/04/18 02:22:10;;;;;;;1.25;1.15;;;;;;;6.89;100.00;97608.66;1702520;75;749173;-71
2023/04/18 02:24:42;;;;;;;1.40;1.30;;;;;;;6.88;100.00;97613.34;1712246;75;677161;-74
2023/04/18 02:27:13;;;;;;;1.70;1.50;;;;;;;6.91;100.00;97617.13;1701406;75;812809;-74
2023/04/18 02:29:44;;;;;;;1.50;1.40;;;;;;;6.96;100.00;97619.25;1712584;75;673088;-72
2023/04/18 02:32:14;;;;;;;1.40;1.30;;;;;;;6.98;100.00;97625.75;1703944;75;739975;-71
2023/04/18 02:34:44;;;;;;;1.40;1.30;;;;;;;6.99;100.00;97624.53;1711860;75;676082;-72
2023/04/18 02:37:15;;;;;;;1.30;1.20;;;;;;;7.04;100.00;97620.47;1703660;75;734835;-72
2023/04/18 02:39:48;;;;;;;1.40;1.30;;;;;;;7.02;100.00;97623.66;1711147;75;747415;-74
2023/04/18 02:42:18;;;;;;;1.60;1.30;;;;;;;7.06;100.00;97620.78;1703304;75;748242;-71
2023/04/18 02:44:48;;;;;;;1.60;1.50;;;;;;;7.12;100.00;97620.91;1709377;75;951971;-72
2023/04/18 02:47:18;;;;;;;1.30;1.20;;;;;;;7.11;100.00;97628.34;1700849;75;914076;-73
2023/04/18 02:49:48;;;;;;;1.05;1.05;;;;;;;7.17;100.00;97633.94;1712349;75;677909;-72
2023/04/18 02:52:19;;;;;;;1.40;1.30;;;;;;;7.11;100.00;97625.63;1703519;75;744332;-70
2023/04/18 02:54:51;;;;;;;4.35;3.95;;;;;;;6.64;100.00;97636.88;1699167;75;1767635;-73
2023/04/18 02:57:21;;;;;;;3.60;3.30;;;;;;;6.96;100.00;97627.44;1703635;75;746114;-72
2023/04/18 02:59:52;;;;;;;2.35;2.10;;;;;;;7.08;100.00;97631.97;1711920;75;678147;-75
2023/04/18 03:02:22;;;;;;;2.90;2.40;;;;;;;7.16;100.00;97629.69;1703502;75;739808;-76
2023/04/18 03:04:52;;;;;;;1.60;1.50;;;;;;;7.17;100.00;97626.53;1711909;75;675350;-70
2023/04/18 03:07:22;;;;;;;1.95;1.80;;;;;;;7.09;100.00;97630.75;1702565;75;757446;-73
2023/04/18 03:09:55;;;;;;;4.65;3.70;;;;;;;6.99;100.00;97631.97;1699225;75;1752080;-73
2023/04/18 03:12:27;;;;;;;2.80;2.60;;;;;;;7.15;100.00;97630.94;1703732;75;744477;-72
2023/04/18 03:14:57;;;;;;;2.20;2.00;;;;;;;7.18;100.00;97624.56;1712458;75;670953;-72
2023/04/18 03:17:27;;;;;;;1.90;1.70;;;;;;;7.22;100.00;97625.94;1689436;75;1860706;-71
2023/04/18 03:19:57;;;;;;;1.65;1.55;;;;;;;7.21;100.00;97623.66;1708592;75;996574;-72
2023/04/18 03:22:27;;;;;;;1.75;1.65;;;;;;;7.27;100.00;97621.84;1702966;75;753497;-72
2023/04/18 03:25:01;;;;;;;1.30;1.20;;;;;;;7.29;100.00;97624.09;1712354;75;671415;-73
2023/04/18 03:27:31;;;;;;;1.70;1.50;;;;;;;7.29;100.00;97629.53;1703474;75;734116;-73
2023/04/18 03:30:02;;;;;;;1.50;1.40;;;;;;;7.25;100.00;97627.75;1707992;75;964739;-71
2023/04/18 03:32:32;;;;;;;1.80;1.50;;;;;;;7.32;100.00;97628.66;1702753;75;759066;-72
2023/04/18 03:35:02;;;;;;;1.20;1.10;;;;;;;7.34;100.00;97635.16;1711764;75;673153;-71
2023/04/18 03:37:32;;;;;;;1.50;1.40;;;;;;;7.33;100.00;97630.16;1702088;75;741441;-71
2023/04/18 03:40:06;;;;;;;2.00;1.80;;;;;;;7.30;100.00;97628.34;1711943;75;675839;-71
2023/04/18 03:42:36;;;;;;;1.70;1.60;;;;;;;7.29;100.00;97627.59;1702162;75;744948;-71
2023/04/18 03:45:07;;;;;;;1.70;1.60;;;;;;;7.37;100.00;97628.06;1711901;75;671213;-72
2023/04/18 03:47:37;;;;;;;1.50;1.40;;;;;;;7.36;100.00;97624.56;1702446;75;747950;-74
2023/04/18 03:50:09;;;;;;;1.60;1.50;;;;;;;7.41;100.00;97628.66;1711153;75;674929;-74
2023/04/18 03:52:39;;;;;;;1.35;1.25;;;;;;;7.41;100.00;97637.59;1702697;75;751417;-72
2023/04/18 03:55:13;;;;;;;1.50;1.40;;;;;;;7.39;100.00;97637.28;1711549;75;672332;-71
2023/04/18 03:57:43;;;;;;;2.05;1.55;;;;;;;7.40;100.00;97636.06;1703137;75;721383;-72
2023/04/18 04:00:15;;;;;;;1.70;1.50;;;;;;;7.39;100.00;97636.53;1711551;75;675584;-72
2023/04/18 04:02:45;;;;;;;1.90;1.70;;;;;;;7.38;100.00;97643.16;1702900;75;738387;-72
2023/04/18 04:05:15;;;;;;;1.60;1.40;;;;;;;7.40;100.00;97646.19;1699847;75;1668715;-72
2023/04/18 04:07:46;;;;;;;1.75;1.65;;;;;;;7.42;100.00;97646.50;1701911;75;751339;-71
2023/04/18 04:10:19;;;;;;;1.50;1.40;;;;;;;7.47;100.00;97641.19;1710831;75;671212;-74
2023/04/18 04:12:49;;;;;;;1.80;1.40;;;;;;;7.54;100.00;97650.28;1700722;75;947774;-72
2023/04/18 04:15:19;;;;;;;2.60;1.60;;;;;;;7.53;100.00;97646.03;1711740;75;688420;-73
2023/04/18 04:17:50;;;;;;;3.05;1.30;;;;;;;7.54;100.00;97653.75;1702683;75;746651;-72
2023/04/18 04:20:23;;;;;;;1.70;1.30;;;;;;;7.58;100.00;97651.66;1711502;75;679746;-74
2023/04/18 04:22:54;;;;;;;2.15;1.20;;;;;;;7.57;100.00;97658.28;1702719;75;745594;-71
2023/04/18 04:25:32;;;;;;;1.70;1.50;;;;;;;7.67;100.00;97662.53;1711757;75;680177;-73
2023/04/18 04:28:03;;;;;;;4.30;3.60;;;;;;;7.64;100.00;97659.97;1703313;75;752072;-72
2023/04/18 04:30:33;;;;;;;5.95;5.00;;;;;;;7.68;100.00;97657.84;1711778;75;679567;-71
2023/04/18 04:33:03;;;;;;;4.05;3.65;;;;;;;7.74;100.00;97663.44;1703043;75;738810;-73
2023/04/18 04:35:33;;;;;;;4.70;4.00;;;;;;;7.64;100.00;97668.13;1711445;75;671594;-72
2023/04/18 04:38:04;;;;;;;4.30;3.90;;;;;;;7.55;100.00;97666.19;1702497;75;754552;-71
2023/04/18 04:40:37;;;;;;;8.60;6.20;;;;;;;7.72;100.00;97674.03;1710973;75;681426;-71
2023/04/18 04:43:11;;;;;;;5.75;5.00;;;;;;;7.79;100.00;97666.31;1674459;75;3026094;-72
2023/04/18 04:45:42;;;;;;;5.15;4.45;;;;;;;7.78;100.00;97666.75;1699662;75;1668541;-71
2023/04/18 04:48:12;;;;;;;10.55;8.05;;;;;;;7.69;100.00;97662.81;1702881;75;752856;-74
2023/04/18 04:50:44;;;;;;;8.40;6.60;;;;;;;7.77;100.00;97673.41;1711608;75;687809;-72
2023/04/18 04:53:14;;;;;;;5.40;4.90;;;;;;;7.93;100.00;97677.78;1703164;75;753350;-70
2023/04/18 04:55:47;;;;;;;4.20;3.75;;;;;;;7.96;100.00;97680.38;1711637;75;671117;-74
2023/04/18 04:58:18;;;;;;;4.85;4.25;;;;;;;8.08;100.00;97670.47;1702987;75;735365;-73
2023/04/18 05:00:49;;;;;;;4.85;3.80;;;;;;;8.07;100.00;97674.44;1711630;75;682931;-72
2023/04/18 05:03:19;;;;;;;4.00;3.40;;;;;;;8.08;100.00;97673.19;1702661;75;765794;-71
2023/04/18 05:05:50;;;;;;;3.50;2.90;;;;;;;8.10;100.00;97677.00;1711096;75;685054;-73
2023/04/18 05:08:21;;;;;;;3.30;2.60;;;;;;;8.06;100.00;97670.94;1702587;75;745424;-74
2023/04/18 05:10:53;;;;;;;2.70;2.25;;;;;;;8.11;100.00;97672.31;1711338;75;684829;-72
2023/04/18 05:13:24;;;;;;;2.30;2.10;;;;;;;8.16;100.00;97673.66;1703093;75;739476;-72
2023/04/18 05:15:54;;;;;;;2.55;2.35;;;;;;;8.22;100.00;97674.53;1711307;75;679995;-74
2023/04/18 05:18:24;;;;;;;2.40;2.05;;;;;;;8.37;100.00;97672.69;1702501;75;750310;-73
2023/04/18 05:20:54;;;;;;;2.75;1.90;;;;;;;8.43;100.00;97689.94;1711744;75;673290;-72
2023/04/18 05:23:24;;;;;;;2.40;1.80;;;;;;;8.52;100.00;97679.00;1702999;75;748620;-75
2023/04/18 05:25:57;;;;;;;2.50;2.30;;;;;;;8.54;100.00;97675.84;1711933;75;670484;-72
2023/04/18 05:28:29;;;;;;;5.05;3.20;;;;;;;8.49;100.00;97671.75;1702866;75;755738;-71
2023/04/18 05:31:00;;;;;;;2.60;2.40;;;;;;;8.65;100.00;97678.78;1711688;75;679449;-74
2023/04/18 05:33:30;;;;;;;2.95;2.40;;;;;;;8.72;100.00;97672.25;1702806;75;731006;-71
2023/04/18 05:36:01;;;;;;;2.35;2.15;;;;;;;8.77;100.00;97674.34;1699380;75;1674676;-75
2023/04/18 05:38:31;;;;;;;2.25;1.80;;;;;;;8.91;100.00;97675.66;1701595;75;741607;-71
2023/04/18 05:41:04;;;;;;;2.50;2.00;;;;;;;9.04;100.00;97673.44;1711377;75;679210;-72
2023/04/18 05:43:34;;;;;;;3.20;2.90;;;;;;;8.88;100.00;97685.53;1700710;75;903297;-73
2023/04/18 05:46:04;;;;;;;4.95;3.60;;;;;;;8.95;100.00;97681.69;1708251;75;943742;-73
2023/04/18 05:48:34;;;;;;;3.25;2.90;;;;;;;9.22;100.00;97685.47;1702746;75;748293;-74
2023/04/18 05:51:05;;;;;;;2.75;2.30;;;;;;;9.20;100.00;97687.91;1699383;75;1762873;-71
2023/04/18 05:53:43;;;;;;;2.60;2.30;;;;;;;9.38;100.00;97680.34;1703306;75;749171;-72
2023/04/18 05:56:16;;;;;;;4.20;3.00;;;;;;;9.31;100.00;97683.44;1704489;75;675311;-71
2023/04/18 05:58:46;;;;;;;3.20;2.90;;;;;;;9.37;100.00;97683.53;1711597;75;696423;-73
2023/04/18 06:01:17;;;;;;;2.70;2.30;;;;;;;9.51;100.00;97687.53;1703724;75;676794;-72
2023/04/18 06:03:47;;;;;;;4.25;3.20;;;;;;;9.53;100.00;97682.38;1711418;75;725851;-74
2023/04/18 06:06:17;;;;;;;3.90;2.40;;;;;;;9.65;100.00;97678.63;1692120;75;1695909;-76
2023/04/18 06:08:48;;;;;;;2.90;2.60;;;;;;;9.67;100.00;97681.63;1711874;75;671290;-74
2023/04/18 06:11:21;;;;;;;3.10;2.70;;;;;;;9.82;100.00;97676.94;1703568;75;695891;-73
2023/04/18 06:13:54;;;;;;;3.75;3.30;;;;;;;9.92;100.00;97688.53;1711244;75;678987;-76
2023/04/18 06:16:25;;;;;;;4.20;2.70;;;;;;;9.93;100.00;97681.09;1700821;75;815742;-71
2023/04/18 06:18:56;;;;;;;3.30;2.80;;;;;;;10.10;100.00;97689.59;1703866;75;855690;-71
2023/04/18 06:21:27;;;;;;;3.30;2.80;;;;;;;10.26;100.00;97686.38;1703325;75;752672;-72
2023/04/18 06:23:57;;;;;;;3.80;3.20;;;;;;;10.18;100.00;97691.47;1711379;75;673530;-72
2023/04/18 06:26:33;;;;;;;5.20;4.50;;;;;;;10.19;100.00;97697.69;1689057;75;1925729;-73
2023/04/18 06:29:05;;;;;;;6.40;5.10;;;;;;;10.16;100.00;97696.66;1679145;75;3458822;-71
2023/04/18 06:31:35;;;;;;;6.55;5.85;;;;;;;9.96;100.00;97699.31;1700528;75;803738;-72
2023/04/18 06:34:06;;;;;;;5.60;5.05;;;;;;;10.12;100.00;97698.81;1709330;75;844232;-73
2023/04/18 06:36:36;;;;;;;8.35;6.35;;;;;;;9.94;100.00;97707.22;1701813;75;749409;-71
2023/04/18 06:39:06;;;;;;;5.50;4.75;;;;;;;10.24;100.00;97706.00;1711913;75;680663;-75
2023/04/18 06:41:39;;;;;;;5.00;3.90;;;;;;;10.37;100.00;97705.00;1690918;75;1678606;-71
2023/04/18 06:44:09;;;;;;;6.30;4.70;;;;;;;10.34;100.00;97706.72;1711018;75;697557;-71
2023/04/18 06:46:40;;;;;;;5.60;4.60;;;;;;;10.46;100.00;97710.34;1698333;75;932015;-73
2023/04/18 06:49:10;;;;;;;4.50;3.40;;;;;;;10.70;100.00;97706.75;1711615;75;675407;-73
2023/04/18 06:51:40;;;;;;;4.90;3.20;;;;;;;10.76;100.00;97704.84;1702818;75;724232;-74
2023/04/18 06:54:10;;;;;;;3.70;2.80;;;;;;;10.87;100.00;97716.72;1711654;75;673537;-71
2023/04/18 06:56:43;;;;;;;3.15;2.50;;;;;;;11.05;100.00;97706.75;1702705;75;748085;-72
2023/04/18 06:59:13;;;;;;;3.20;2.60;;;;;;;11.13;99.52;97707.84;1711101;75;680211;-72
2023/04/18 07:01:44;;;;;;;3.75;2.90;;;;;;;11.28;99.36;97705.03;1702964;75;740385;-71
2023/04/18 07:04:14;;;;;;;3.20;2.90;;;;;;;11.46;97.56;97702.03;1711359;75;672682;-75
2023/04/18 07:06:45;;;;;;;3.50;2.30;;;;;;;11.69;95.50;97708.53;1687209;75;1966669;-74
2023/04/18 07:09:16;;;;;;;3.00;2.50;;;;;;;11.85;92.90;97712.69;1711062;75;669863;-74
2023/04/18 07:11:51;;;;;;;3.90;2.70;;;;;;;11.95;90.07;97707.81;1702577;75;749171;-75
2023/04/18 07:14:24;;;;;;;3.50;2.80;;;;;;;12.01;90.14;97705.91;1707892;75;973293;-73
2023/04/18 07:16:57;;;;;;;2.30;2.10;;;;;;;12.17;87.95;97709.28;1685807;75;2844747;-76
2023/04/18 07:19:27;;;;;;;3.80;2.80;;;;;;;12.39;86.84;97706.75;1701687;75;878984;-75
2023/04/18 07:21:58;;;;;;;2.40;2.00;;;;;;;12.52;86.81;97703.59;1712367;75;676996;-74
2023/04/18 07:24:28;;;;;;;2.70;2.10;;;;;;;12.70;87.55;97702.47;1704161;75;676887;-73
2023/04/18 07:27:01;;;;;;;3.50;2.60;;;;;;;12.89;85.77;97706.38;1711083;75;675174;-74
2023/04/18 07:29:31;;;;;;;5.90;4.40;;;;;;;12.83;82.37;97708.31;1703663;75;681428;-74
2023/04/18 07:32:01;;;;;;;3.70;2.80;;;;;;;13.07;78.96;97715.47;1712096;75;679109;-73
2023/04/18 07:34:34;;;;;;;4.00;2.80;;;;;;;13.21;80.48;97695.31;1703942;75;673519;-73
2023/04/18 07:37:05;;;;;;;3.60;2.95;;;;;;;13.12;79.72;97712.00;1711439;75;679721;-76
2023/04/18 07:39:36;;;;;;;3.50;2.40;;;;;;;13.45;83.09;97707.94;1703155;75;705695;-73
2023/04/18 07:42:10;;;;;;;2.95;2.65;;;;;;;13.45;82.78;97708.69;1711702;75;677987;-71
2023/04/18 07:44:40;;;;;;;3.75;2.80;;;;;;;13.55;83.26;97712.72;1702612;75;681358;-73
2023/04/18 07:47:11;;;;;;;4.50;3.10;;;;;;;13.62;81.39;97711.50;1710581;75;677165;-74
2023/04/18 07:49:42;;;;;;;4.60;2.90;;;;;;;13.69;79.80;97713.03;1703603;75;680007;-73
2023/04/18 07:52:12;;;;;;;4.20;2.70;;;;;;;13.78;74.94;97712.78;1711475;75;684132;-71
2023/04/18 07:54:42;;;;;;;2.90;2.30;;;;;;;13.79;69.90;97711.53;1702663;75;686208;-72
2023/04/18 07:57:16;;;;;;;3.00;2.20;;;;;;;13.84;72.55;97719.06;1686826;75;2677576;-69
2023/04/18 07:59:46;;;;;;;3.20;2.20;;;;;;;14.05;72.64;97720.38;1702069;75;747659;-70
2023/04/18 08:02:16;;;;;;;2.40;1.85;;;;;;;14.05;71.38;97714.13;1710564;75;696808;-75
2023/04/18 08:04:48;;;;;;;3.75;1.90;;;;;;;13.85;71.31;97724.09;1700038;75;751585;-72
2023/04/18 08:07:18;;;;;;;3.65;2.30;;;;;;;13.84;71.46;97721.81;1709659;75;682203;-69
2023/04/18 08:09:48;;;;;;;2.60;1.80;;;;;;;13.85;71.20;97726.84;1701911;75;745155;-72
2023/04/18 08:12:21;;;;;;;2.55;1.80;;;;;;;13.81;71.36;97725.56;1709771;75;672767;-69
2023/04/18 08:14:51;;;;;;;2.30;1.70;;;;;;;13.91;71.80;97726.09;1700350;75;752576;-72
2023/04/18 08:17:22;;;;;;;2.05;1.75;;;;;;;13.76;71.94;97726.31;1710251;75;674681;-71
2023/04/18 08:19:53;;;;;;;3.40;1.80;;;;;;;13.70;71.46;97726.28;1699008;75;877753;-69
2023/04/18 08:22:23;;;;;;;2.90;1.70;;;;;;;13.81;72.03;97720.81;1710242;75;692687;-71
2023/04/18 08:24:56;;;;;;;2.10;1.85;;;;;;;13.69;70.95;97729.53;1701565;75;751284;-71
2023/04/18 08:27:30;;;;;;;2.15;1.45;;;;;;;13.59;71.61;97729.00;1710776;75;671221;-71
2023/04/18 08:30:02;;;;;;;2.15;1.60;;;;;;;13.66;72.02;97730.50;1702201;75;748704;-70
2023/04/18 08:32:33;;;;;;;4.00;3.20;;;;;;;13.60;72.92;97733.25;1710950;75;676673;-69
2023/04/18 08:35:03;;;;;;;2.85;1.90;;;;;;;13.71;75.67;97732.50;1701397;75;744431;-69
2023/04/18 08:37:34;;;;;;;2.90;2.10;;;;;;;13.49;75.06;97736.69;1710380;75;680346;-69
2023/04/18 08:40:06;;;;;;;3.20;2.20;;;;;;;13.51;75.54;97739.69;1699034;75;866115;-73
2023/04/18 08:42:39;;;;;;;2.80;2.00;;;;;;;13.54;78.56;97741.47;1710308;75;678331;-71
2023/04/18 08:45:12;;;;;;;2.65;2.05;;;;;;;13.55;79.58;97742.22;1689032;75;1744586;-68
2023/04/18 08:47:43;;;;;;;2.30;1.90;;;;;;;13.62;79.50;97737.00;1709622;75;697266;-74
2023/04/18 08:50:15;;;;;;;2.20;1.70;;;;;;;13.70;79.52;97739.28;1701918;75;733007;-73
2023/04/18 08:52:49;;;;;;;2.75;2.00;;;;;;;13.71;80.92;97749.78;1708377;75;909856;-74
2023/04/18 08:55:21;;;;;;;2.05;1.80;;;;;;;13.68;79.04;97750.75;1701273;75;758199;-74
2023/04/18 08:57:56;;;;;;;2.40;2.00;;;;;;;13.75;79.40;97747.53;1709399;75;694724;-73
2023/04/18 09:00:28;;;;;;;2.25;1.60;;;;;;;14.00;81.38;97748.63;1701827;75;753525;-70
2023/04/18 09:02:58;;;;;;;2.80;1.80;;;;;;;13.81;80.50;97750.34;1708522;75;877766;-70
2023/04/18 09:05:29;;;;;;;3.15;1.95;;;;;;;13.78;82.29;97749.31;1701440;75;742654;-70
2023/04/18 09:07:59;;;;;;;2.30;1.70;;;;;;;13.75;81.23;97750.28;1709994;75;681276;-69
2023/04/18 09:10:32;;;;;;;2.15;1.55;;;;;;;13.59;81.49;97757.25;1702836;75;743241;-69
2023/04/18 09:13:08;;;;;;;2.15;1.55;;;;;;;13.72;83.17;97756.03;1710180;75;829346;-70
2023/04/18 09:15:39;;;;;;;2.85;1.90;;;;;;;13.98;81.84;97755.88;1702544;75;755369;-70
2023/04/18 09:18:13;;;;;;;2.50;1.70;;;;;;;13.83;79.91;97762.34;1710647;75;684848;-70
2023/04/18 09:20:46;;;;;;;1.70;1.50;;;;;;;13.83;79.37;97759.59;1701780;75;746891;-69
2023/04/18 09:23:26;;;;;;;1.90;1.60;;;;;;;13.93;78.91;97753.88;1710413;75;679589;-70
2023/04/18 09:25:57;;;;;;;2.10;1.50;;;;;;;13.96;76.46;97752.88;1701326;75;752950;-68
2023/04/18 09:28:32;;;;;;;1.40;1.30;;;;;;;13.80;78.07;97752.31;1710475;75;671538;-72
2023/04/18 09:31:11;;;;;;;1.85;1.35;;;;;;;13.78;79.40;97749.31;1701646;75;745596;-70
2023/04/18 09:33:45;;;;;;;2.00;1.30;;;;;;;13.88;78.86;97751.84;1676758;75;2730882;-69
2023/04/18 09:36:22;;;;;;;2.80;1.50;;;;;;;13.88;81.40;97752.59;1710096;75;674895;-70
2023/04/18 09:38:54;;;;;;;2.10;1.35;;;;;;;13.98;81.88;97753.88;1702525;75;695423;-71
2023/04/18 09:41:24;;;;;;;3.25;1.50;;;;;;;13.96;82.95;97750.88;1710976;75;688791;-71
2023/04/18 09:44:14;;;;;;;1.50;1.30;;;;;;;14.10;80.34;97751.16;1702916;75;678366;-70
2023/04/18 09:46:45;;;;;;;1.65;1.30;;;;;;;14.02;79.73;97750.88;1702438;75;685085;-69
2023/04/18 09:49:15;;;;;;;1.40;1.30;;;;;;;13.92;80.62;97755.84;1697343;75;1793255;-71
2023/04/18 09:51:47;;;;;;;1.25;1.10;;;;;;;13.92;80.09;97758.59;1703494;75;682486;-69
2023/04/18 09:54:19;;;;;;;1.90;1.40;;;;;;;13.90;80.60;97752.09;1708426;75;814250;-70
2023/04/18 09:56:53;;;;;;;3.00;1.70;;;;;;;13.96;80.32;97758.38;1703036;75;687593;-69
2023/04/18 09:59:46;;;;;;;2.20;1.50;;;;;;;14.12;79.35;97754.16;1710242;75;671569;-69
2023/04/18 10:02:22;;;;;;;2.75;1.55;;;;;;;14.08;78.44;97757.16;1701929;75;750628;-71
2023/04/18 10:04:53;;;;;;;1.95;1.30;;;;;;;14.00;78.21;97753.41;1701996;75;676192;-68
2023/04/18 10:07:28;;;;;;;1.70;1.40;;;;;;;13.99;79.27;97758.13;1710204;75;683741;-69
2023/04/18 10:09:59;;;;;;;2.30;1.40;;;;;;;14.34;81.58;97765.22;1702852;75;675855;-71
2023/04/18 10:12:29;;;;;;;1.50;1.10;;;;;;;14.14;78.96;97762.66;1710457;75;679694;-74
2023/04/18 10:15:03;;;;;;;1.80;1.35;;;;;;;14.14;79.77;97755.19;1702823;75;677542;-70
2023/04/18 10:17:44;;;;;;;1.90;1.40;;;;;;;14.28;80.15;97758.94;1710588;75;674669;-72
2023/04/18 10:20:21;;;;;;;1.60;1.30;;;;;;;14.47;79.73;97756.47;1701908;75;756312;-73
2023/04/18 10:22:53;;;;;;;2.00;1.50;;;;;;;14.48;81.28;97760.75;1705520;75;907078;-73
2023/04/18 10:25:52;;;;;;;1.55;1.15;;;;;;;14.34;81.10;97758.97;1709539;75;809886;-72
2023/04/18 10:28:26;;;;;;;2.60;1.80;;;;;;;14.42;79.01;97757.22;1701216;75;752207;-73
2023/04/18 10:31:04;;;;;;;1.80;1.20;;;;;;;14.37;77.98;97757.97;1707906;75;947671;-73
2023/04/18 10:33:41;;;;;;;1.70;1.30;;;;;;;14.34;78.79;97751.44;1700499;75;844435;-73
2023/04/18 10:36:20;;;;;;;2.80;1.70;;;;;;;14.14;79.99;97752.44;1702504;75;678169;-73
2023/04/18 10:38:53;;;;;;;2.30;1.40;;;;;;;14.51;79.88;97750.72;1710194;75;694607;-74
2023/04/18 10:41:28;;;;;;;1.60;1.20;;;;;;;14.46;80.51;97752.97;1703119;75;713338;-71
2023/04/18 10:44:21;;;;;;;5.90;3.10;;;;;;;14.45;79.92;97758.97;1711229;75;670886;-71
2023/04/18 10:47:35;;;;;;;4.95;3.10;;;;;;;14.52;77.54;97744.69;1702345;75;761498;-73
2023/04/18 10:50:07;;;;;;;3.30;2.50;;;;;;;14.65;77.86;97750.50;1701072;75;759030;-73
2023/04/18 10:52:37;;;;;;;2.95;1.75;;;;;;;15.09;79.20;97743.44;1695850;75;1893197;-72
2023/04/18 10:55:30;;;;;;;1.95;1.40;;;;;;;15.26;75.58;97750.94;1701954;75;762017;-72
2023/04/18 10:58:02;;;;;;;1.30;1.20;;;;;;;15.22;75.98;97748.41;1703166;75;684012;-75
2023/04/18 11:00:33;;;;;;;1.35;1.20;;;;;;;15.42;75.11;97738.34;1710814;75;683939;-74
2023/04/18 11:03:07;;;;;;;1.10;1.00;;;;;;;15.72;74.77;97744.75;1703785;75;675086;-71
2023/04/18 11:05:38;;;;;;;2.20;1.20;;;;;;;15.83;71.74;97738.47;1711156;75;679393;-71
2023/04/18 11:08:23;;;;;;;1.00;0.90;;;;;;;16.06;69.50;97733.56;1702072;75;764768;-75
2023/04/18 11:11:02;;;;;;;1.40;1.20;;;;;;;16.06;71.43;97739.06;1688759;75;1936912;-72
2023/04/18 11:13:33;;;;;;;1.90;1.30;;;;;;;16.36;69.38;97735.63;1711414;75;676201;-73
2023/04/18 11:16:03;;;;;;;1.30;1.10;;;;;;;16.27;68.08;97733.94;1688091;75;1910665;-73
2023/04/18 11:18:45;;;;;;;1.30;1.10;;;;;;;16.46;67.80;97736.81;1710320;75;676648;-74
2023/04/18 11:21:16;;;;;;;1.40;1.00;;;;;;;16.49;67.30;97730.25;1702714;75;747574;-73
2023/04/18 11:23:47;;;;;;;1.20;1.00;;;;;;;16.18;69.81;97737.00;1695606;75;1967175;-72
2023/04/18 11:26:18;;;;;;;1.05;0.90;;;;;;;16.31;67.28;97734.41;1702039;75;739445;-73
2023/04/18 11:28:54;;;;;;;0.80;0.80;;;;;;;16.53;67.05;97729.97;1710951;75;671874;-76
2023/04/18 11:31:26;;;;;;;1.10;0.80;;;;;;;16.26;66.53;97729.69;1702695;75;753396;-75
2023/04/18 11:34:00;;;;;;;0.70;0.70;;;;;;;16.20;67.00;97731.72;1711177;75;676878;-75
2023/04/18 11:36:30;;;;;;;1.00;0.80;;;;;;;16.21;66.43;97735.22;1687920;75;1827597;-75
2023/04/18 11:39:00;;;;;;;2.15;0.70;;;;;;;16.10;67.26;97734.03;1698698;75;1728419;-73
2023/04/18 11:41:31;;;;;;;0.95;0.80;;;;;;;15.67;70.22;97742.75;1677328;75;2802183;-75
2023/04/18 11:44:01;;;;;;;1.10;0.80;;;;;;;15.63;70.82;97733.97;1684320;75;2966423;-74
2023/04/18 11:46:41;;;;;;;0.55;0.55;;;;;;;15.81;72.34;97737.47;1702273;75;723645;-74